Time;durP1;ratioP1;P1;durP2;ratioP2;P2;SDS_P1;SDS_P2;PMS_P1;PMS_P2;Temp;Humidity;BMP_temperature;BMP_pressure;BME280_temperature;BME280_humidity;BME280_pressure;Samples;Min_cycle;Max_cycle;Signal;HPM_P1;HPM_P2
2022/07/28 00:01:49;;;;;;;1.38;0.77;;;19.30;75.80;;;;;;5053679;28;20374;-59
2022/07/28 00:04:15;;;;;;;1.80;0.80;;;19.20;75.80;;;;;;5053523;28;20029;-59
2022/07/28 00:06:40;;;;;;;3.88;0.90;;;19.20;76.70;;;;;;5053775;28;20394;-60
2022/07/28 00:09:06;;;;;;;4.55;0.90;;;19.20;76.10;;;;;;5053716;28;20033;-58
2022/07/28 00:11:31;;;;;;;3.13;0.90;;;19.20;76.10;;;;;;5053977;28;20040;-56
2022/07/28 00:13:57;;;;;;;2.13;1.10;;;19.20;76.10;;;;;;5054630;28;20090;-59
2022/07/28 00:16:22;;;;;;;5.90;0.88;;;19.20;76.10;;;;;;5054027;28;20025;-60
2022/07/28 00:18:48;;;;;;;2.58;1.00;;;19.20;76.30;;;;;;5054317;28;20386;-57
2022/07/28 00:21:14;;;;;;;2.20;1.17;;;19.10;76.40;;;;;;5053745;28;20037;-60
2022/07/28 00:23:39;;;;;;;2.50;0.90;;;19.10;76.50;;;;;;5053692;28;20021;-58
2022/07/28 00:26:06;;;;;;;1.70;0.88;;;19.10;76.30;;;;;;5052387;28;20397;-58
2022/07/28 00:28:31;;;;;;;2.70;0.80;;;19.20;76.30;;;;;;5053847;28;20037;-59
2022/07/28 00:30:57;;;;;;;3.70;1.10;;;19.10;76.40;;;;;;5053469;28;20029;-59
2022/07/28 00:33:22;;;;;;;2.45;1.35;;;19.00;76.80;;;;;;5053585;28;20032;-55
2022/07/28 00:35:48;;;;;;;2.92;0.90;;;18.90;76.60;;;;;;5054124;28;20025;-60
2022/07/28 00:38:13;;;;;;;2.15;0.77;;;19.00;76.80;;;;;;5053362;28;20056;-56
2022/07/28 00:43:23;;;;;;;1.73;0.65;;;19.00;76.60;;;;;;5057092;28;20036;-57
2022/07/28 00:45:49;;;;;;;2.28;0.90;;;19.00;76.80;;;;;;5057135;28;20025;-58
2022/07/28 00:48:15;;;;;;;1.75;0.88;;;18.90;76.90;;;;;;5057024;28;20114;-57
2022/07/28 00:50:42;;;;;;;2.10;0.90;;;18.90;76.90;;;;;;5056704;28;20057;-57
2022/07/28 00:53:08;;;;;;;2.90;0.93;;;18.80;77.20;;;;;;5055838;28;20033;-59
2022/07/28 00:55:33;;;;;;;6.13;0.80;;;18.80;77.30;;;;;;5057828;28;20358;-59
2022/07/28 00:58:00;;;;;;;1.45;0.63;;;18.80;77.20;;;;;;5057120;28;20107;-56
2022/07/28 01:00:25;;;;;;;3.58;0.80;;;18.80;77.20;;;;;;5056496;28;20024;-56
2022/07/28 01:02:51;;;;;;;3.05;1.00;;;18.90;77.30;;;;;;5056918;28;20492;-59
2022/07/28 01:05:18;;;;;;;1.25;0.80;;;18.90;77.30;;;;;;5057930;28;20051;-59
2022/07/28 01:08:12;;;;;;;2.38;1.23;;;18.90;77.20;;;;;;5057576;28;20571;-57
2022/07/28 01:11:02;;;;;;;1.13;0.70;;;18.90;77.20;;;;;;5057162;28;20068;-60
2022/07/28 01:13:59;;;;;;;2.53;0.95;;;19.00;77.30;;;;;;5057137;28;20100;-57
2022/07/28 01:16:26;;;;;;;1.02;0.65;;;19.00;77.20;;;;;;5052868;28;20412;-58
2022/07/28 01:19:08;;;;;;;7.45;1.10;;;19.00;77.20;;;;;;5056831;28;20033;-59
2022/07/28 01:21:36;;;;;;;3.33;0.80;;;19.00;77.30;;;;;;5056717;28;20025;-60
2022/07/28 01:24:32;;;;;;;1.73;0.80;;;19.00;77.20;;;;;;5056750;28;20103;-57
2022/07/28 01:27:09;;;;;;;2.85;0.93;;;19.00;77.10;;;;;;5056452;28;20436;-58
2022/07/28 01:29:41;;;;;;;2.67;0.85;;;19.00;77.20;;;;;;5056267;28;20021;-59
2022/07/28 01:32:24;;;;;;;2.55;0.77;;;19.00;77.20;;;;;;5056235;28;20033;-59
2022/07/28 01:35:07;;;;;;;3.70;0.98;;;19.00;77.20;;;;;;5056269;28;20021;-59
2022/07/28 01:37:38;;;;;;;2.13;0.80;;;19.00;77.20;;;;;;5056527;28;20023;-59
2022/07/28 01:40:06;;;;;;;1.02;0.75;;;19.00;77.40;;;;;;5055993;28;20024;-60
2022/07/28 01:42:40;;;;;;;2.72;0.60;;;19.00;77.50;;;;;;5056043;28;20029;-59
2022/07/28 01:45:08;;;;;;;1.90;0.80;;;18.90;77.50;;;;;;5055948;28;20025;-60
2022/07/28 01:47:34;;;;;;;2.60;0.88;;;18.90;77.60;;;;;;5055595;28;20078;-56
2022/07/28 01:50:05;;;;;;;2.92;0.82;;;18.90;77.70;;;;;;5055603;28;20024;-56
2022/07/28 01:52:33;;;;;;;1.45;0.80;;;18.90;78.00;;;;;;5055753;28;20029;-58
2022/07/28 01:55:01;;;;;;;2.03;0.63;;;18.80;78.20;;;;;;5055678;28;20028;-58
2022/07/28 01:57:29;;;;;;;2.88;0.70;;;18.80;78.30;;;;;;5055900;28;20038;-59
2022/07/28 01:59:56;;;;;;;2.10;0.70;;;18.80;78.60;;;;;;5055863;28;20115;-60
2022/07/28 02:02:22;;;;;;;1.95;1.30;;;18.70;78.90;;;;;;5056221;28;20033;-59
2022/07/28 02:04:50;;;;;;;3.55;0.85;;;18.60;79.30;;;;;;5054520;28;20440;-57
2022/07/28 02:07:17;;;;;;;5.28;1.08;;;18.60;79.70;;;;;;5055860;28;20040;-60
2022/07/28 02:09:46;;;;;;;1.83;0.93;;;18.60;79.90;;;;;;5056418;28;20029;-60
2022/07/28 02:12:14;;;;;;;2.33;0.80;;;18.50;80.10;;;;;;5056030;28;20351;-58
2022/07/28 02:14:40;;;;;;;4.00;0.95;;;18.50;80.20;;;;;;5055497;28;20017;-60
2022/07/28 02:17:15;;;;;;;4.43;0.82;;;18.60;80.40;;;;;;5054215;28;20064;-60
2022/07/28 02:19:43;;;;;;;1.13;0.80;;;18.60;80.40;;;;;;5055375;28;20052;-60
2022/07/28 02:22:09;;;;;;;2.47;0.70;;;18.50;80.50;;;;;;5055217;28;20063;-60
2022/07/28 02:24:37;;;;;;;2.97;0.80;;;18.50;80.60;;;;;;5055281;28;20028;-60
2022/07/28 02:27:08;;;;;;;3.00;1.00;;;18.50;80.60;;;;;;5055241;28;20108;-59
2022/07/28 02:29:43;;;;;;;2.72;1.20;;;18.50;80.80;;;;;;5055467;28;20021;-58
2022/07/28 02:32:18;;;;;;;4.28;1.00;;;18.40;80.80;;;;;;5055710;28;20029;-60
2022/07/28 02:34:46;;;;;;;1.27;0.70;;;18.40;81.10;;;;;;5055617;28;20075;-59
2022/07/28 02:37:14;;;;;;;3.60;0.90;;;18.30;81.40;;;;;;5054022;28;20112;-61
2022/07/28 02:39:52;;;;;;;1.33;0.65;;;18.20;81.80;;;;;;5055577;28;20053;-60
2022/07/28 02:42:21;;;;;;;1.55;0.80;;;18.00;82.40;;;;;;5055410;28;20031;-58
2022/07/28 02:44:57;;;;;;;1.05;0.70;;;17.90;82.90;;;;;;5055116;28;20112;-57
2022/07/28 02:47:26;;;;;;;1.85;0.88;;;17.80;83.10;;;;;;5055283;28;20506;-58
2022/07/28 02:49:54;;;;;;;1.77;0.80;;;17.80;83.10;;;;;;5055527;28;20029;-58
2022/07/28 02:52:22;;;;;;;1.05;0.60;;;17.80;83.10;;;;;;5055285;28;20051;-56
2022/07/28 02:54:49;;;;;;;2.58;1.02;;;17.90;83.30;;;;;;5055126;28;20496;-59
2022/07/28 02:57:16;;;;;;;2.88;0.80;;;17.90;83.50;;;;;;5054919;28;20048;-59
2022/07/28 02:59:43;;;;;;;1.35;1.00;;;17.80;83.50;;;;;;5054643;28;20040;-59
2022/07/28 03:02:09;;;;;;;3.28;0.85;;;17.80;83.50;;;;;;5054732;28;20448;-57
2022/07/28 03:04:55;;;;;;;2.25;0.80;;;17.80;83.60;;;;;;5054821;28;20029;-58
2022/07/28 03:07:21;;;;;;;2.53;0.93;;;17.80;83.60;;;;;;5055007;28;20470;-58
2022/07/28 03:09:47;;;;;;;2.40;0.95;;;17.80;83.70;;;;;;5054366;28;20170;-58
2022/07/28 03:12:13;;;;;;;2.28;0.80;;;17.80;83.70;;;;;;5054659;28;20025;-60
2022/07/28 03:14:39;;;;;;;1.80;0.70;;;17.80;83.80;;;;;;5054798;28;20079;-59
2022/07/28 03:17:06;;;;;;;4.82;0.82;;;17.70;83.80;;;;;;5054849;28;20440;-57
2022/07/28 03:19:31;;;;;;;5.72;1.00;;;17.70;84.00;;;;;;5054563;28;20068;-56
2022/07/28 03:21:57;;;;;;;3.45;0.93;;;17.70;83.90;;;;;;5054497;28;20068;-58
2022/07/28 03:24:28;;;;;;;1.48;1.02;;;17.70;83.80;;;;;;5054394;28;20021;-59
2022/07/28 03:27:31;;;;;;;1.50;0.75;;;17.70;84.00;;;;;;5054333;28;20069;-59
2022/07/28 03:30:03;;;;;;;4.43;1.00;;;17.50;84.30;;;;;;5054511;28;20025;-60
2022/07/28 03:32:32;;;;;;;2.90;0.85;;;17.50;84.50;;;;;;5054005;28;20040;-60
2022/07/28 03:34:58;;;;;;;2.78;1.05;;;17.50;84.50;;;;;;5053963;28;20056;-59
2022/07/28 03:37:31;;;;;;;1.55;0.63;;;17.40;84.70;;;;;;5054023;28;20052;-59
2022/07/28 03:39:59;;;;;;;5.78;0.88;;;17.40;84.90;;;;;;5054216;28;20033;-58
2022/07/28 03:42:26;;;;;;;3.17;0.93;;;17.40;85.00;;;;;;5054490;28;20029;-59
2022/07/28 03:44:52;;;;;;;2.80;1.05;;;17.40;85.10;;;;;;5053907;28;20430;-59
2022/07/28 03:47:23;;;;;;;2.28;0.90;;;17.30;85.20;;;;;;5052472;28;20123;-60
2022/07/28 03:49:49;;;;;;;2.63;0.90;;;17.30;85.40;;;;;;5053889;28;20486;-59
2022/07/28 03:52:15;;;;;;;1.83;0.60;;;17.30;85.40;;;;;;5054121;28;20021;-60
2022/07/28 03:54:41;;;;;;;;;;;17.30;85.50;;;;;;5054184;28;20057;-61
2022/07/28 03:57:06;;;;;;;3.60;1.10;;;17.20;85.80;;;;;;5053820;28;19915;-59
2022/07/28 03:59:32;;;;;;;5.60;0.90;;;17.20;86.10;;;;;;5053484;28;20066;-58
2022/07/28 04:01:57;;;;;;;1.63;0.63;;;17.20;86.30;;;;;;5053463;28;20033;-61
2022/07/28 04:04:23;;;;;;;2.70;0.90;;;17.10;86.60;;;;;;5053531;28;20041;-58
2022/07/28 04:06:49;;;;;;;4.30;1.10;;;17.00;87.00;;;;;;5053485;28;20275;-61
2022/07/28 04:09:15;;;;;;;1.98;0.80;;;16.80;87.30;;;;;;5053275;28;20120;-62
2022/07/28 04:11:41;;;;;;;4.00;1.58;;;16.70;87.90;;;;;;5051996;28;20124;-63
2022/07/28 04:14:06;;;;;;;2.35;1.00;;;16.70;88.60;;;;;;5053181;28;20040;-62
2022/07/28 04:16:32;;;;;;;4.20;1.23;;;16.60;88.60;;;;;;5056070;28;20033;-61
2022/07/28 04:18:58;;;;;;;2.60;0.80;;;16.60;88.90;;;;;;5059720;28;20113;-62
2022/07/28 04:21:24;;;;;;;3.30;1.47;;;16.60;88.70;;;;;;5059634;28;20482;-61
2022/07/28 04:23:50;;;;;;;4.60;0.80;;;16.70;88.80;;;;;;5059888;28;20370;-60
2022/07/28 04:26:16;;;;;;;2.15;0.90;;;16.70;88.70;;;;;;5059945;28;20020;-62
2022/07/28 04:28:42;;;;;;;3.10;1.13;;;16.70;89.00;;;;;;5060195;28;20032;-62
2022/07/28 04:31:08;;;;;;;;;;;16.70;89.20;;;;;;5060527;28;20497;-61
2022/07/28 04:33:33;;;;;;;2.85;0.88;;;16.70;89.20;;;;;;5060066;28;19924;-62
2022/07/28 04:36:02;;;;;;;1.50;0.73;;;16.70;89.30;;;;;;5059832;28;20051;-61
2022/07/28 04:38:27;;;;;;;2.78;1.00;;;16.70;89.40;;;;;;5059802;28;20083;-62
2022/07/28 04:40:54;;;;;;;1.60;0.73;;;16.70;89.50;;;;;;5059612;28;20025;-63
2022/07/28 04:43:20;;;;;;;1.63;0.77;;;16.70;89.50;;;;;;5060296;28;20021;-62
2022/07/28 04:45:46;;;;;;;2.75;0.63;;;16.80;89.60;;;;;;5060035;28;20538;-62
2022/07/28 04:48:13;;;;;;;3.03;1.20;;;16.80;89.60;;;;;;5060414;28;20051;-62
2022/07/28 04:50:44;;;;;;;1.88;0.80;;;16.80;89.50;;;;;;5059890;28;20017;-61
2022/07/28 04:53:10;;;;;;;3.90;0.80;;;16.90;89.40;;;;;;5059173;28;20043;-61
2022/07/28 04:55:37;;;;;;;;;;;17.00;89.30;;;;;;5060622;28;20082;-61
2022/07/28 04:58:04;;;;;;;5.75;1.38;;;17.00;89.40;;;;;;5059946;28;19904;-63
2022/07/28 05:00:30;;;;;;;1.80;0.93;;;17.00;89.40;;;;;;5059934;28;20106;-58
2022/07/28 05:02:57;;;;;;;2.95;1.00;;;17.00;89.60;;;;;;5059516;28;20056;-61
2022/07/28 05:05:23;;;;;;;3.03;0.95;;;17.00;89.80;;;;;;5058510;28;20119;-60
2022/07/28 05:07:49;;;;;;;1.85;1.10;;;17.10;89.60;;;;;;5059551;28;20030;-56
2022/07/28 05:10:14;;;;;;;2.70;0.93;;;17.10;89.60;;;;;;5059633;28;20079;-60
2022/07/28 05:12:40;;;;;;;4.80;0.98;;;17.10;89.40;;;;;;5060040;28;20048;-62
2022/07/28 05:15:06;;;;;;;2.33;0.90;;;17.20;89.30;;;;;;5060025;28;20496;-60
2022/07/28 05:17:32;;;;;;;4.85;2.30;;;17.20;89.40;;;;;;5059953;28;20028;-61
2022/07/28 05:19:58;;;;;;;3.97;2.67;;;17.20;89.50;;;;;;5059633;28;20381;-61
2022/07/28 05:22:23;;;;;;;3.30;0.90;;;17.30;89.60;;;;;;5059779;28;20033;-61
2022/07/28 05:24:49;;;;;;;2.30;0.80;;;17.30;89.40;;;;;;5059470;28;20081;-59
2022/07/28 05:27:14;;;;;;;2.00;1.20;;;17.30;89.50;;;;;;5059072;28;20032;-60
2022/07/28 05:29:40;;;;;;;2.47;0.98;;;17.40;89.30;;;;;;5055194;28;20029;-61
2022/07/28 05:32:07;;;;;;;5.65;1.05;;;17.40;89.50;;;;;;5056122;28;20393;-61
2022/07/28 05:34:32;;;;;;;3.35;1.05;;;17.40;89.30;;;;;;5056451;28;20482;-61
2022/07/28 05:37:01;;;;;;;2.55;0.70;;;17.50;89.00;;;;;;5056086;28;20086;-61
2022/07/28 05:39:27;;;;;;;7.72;1.20;;;17.60;88.70;;;;;;5055983;28;20021;-59
2022/07/28 05:41:53;;;;;;;4.85;1.17;;;17.70;88.80;;;;;;5056187;28;20044;-63
2022/07/28 05:44:18;;;;;;;3.57;1.20;;;17.70;88.40;;;;;;5055796;28;20040;-60
2022/07/28 05:46:44;;;;;;;1.27;0.70;;;17.80;88.30;;;;;;5055901;28;20287;-60
2022/07/28 05:49:10;;;;;;;8.17;1.90;;;17.80;88.50;;;;;;5054845;28;20252;-59
2022/07/28 05:51:35;;;;;;;2.78;1.05;;;17.70;88.70;;;;;;5054576;28;20255;-59
2022/07/28 05:54:01;;;;;;;3.95;1.10;;;17.70;88.70;;;;;;5056268;28;20047;-62
2022/07/28 05:56:26;;;;;;;2.70;1.03;;;17.80;88.90;;;;;;5054126;28;20450;-60
2022/07/28 05:58:52;;;;;;;7.17;1.20;;;17.80;89.00;;;;;;5055846;28;20270;-60
2022/07/28 06:01:17;;;;;;;4.82;1.40;;;17.90;88.70;;;;;;5054498;28;20056;-60
2022/07/28 06:03:43;;;;;;;1.20;0.80;;;17.90;88.60;;;;;;5054402;28;20029;-62
2022/07/28 06:06:09;;;;;;;3.43;0.90;;;18.00;88.30;;;;;;5055150;28;20313;-60
2022/07/28 06:08:35;;;;;;;2.55;1.10;;;18.10;88.00;;;;;;5056226;28;20273;-61
2022/07/28 06:11:07;;;;;;;5.30;1.05;;;18.20;87.80;;;;;;5054304;28;20041;-61
2022/07/28 06:13:34;;;;;;;2.28;0.77;;;18.40;87.30;;;;;;5055886;28;20032;-61
2022/07/28 06:15:59;;;;;;;4.57;1.05;;;18.50;86.60;;;;;;5056379;28;20032;-61
2022/07/28 06:18:25;;;;;;;2.10;0.80;;;18.50;85.50;;;;;;5055774;28;20050;-62
2022/07/28 06:20:50;;;;;;;2.85;0.95;;;18.40;85.80;;;;;;5055611;28;20082;-61
2022/07/28 06:23:19;;;;;;;3.90;0.85;;;18.50;86.10;;;;;;5055282;28;20457;-61
2022/07/28 06:25:45;;;;;;;1.77;1.02;;;18.50;86.00;;;;;;5055370;28;20078;-62
2022/07/28 06:28:10;;;;;;;2.55;1.00;;;18.60;85.70;;;;;;5055425;28;20021;-61
2022/07/28 06:30:36;;;;;;;3.67;1.02;;;18.70;85.70;;;;;;5055038;28;20033;-60
2022/07/28 06:33:04;;;;;;;3.22;1.02;;;18.70;85.50;;;;;;5055362;28;20021;-62
2022/07/28 06:35:31;;;;;;;2.40;0.90;;;18.80;85.50;;;;;;5055723;28;20033;-62
2022/07/28 06:37:57;;;;;;;5.10;1.15;;;18.90;85.00;;;;;;5054928;28;20432;-61
2022/07/28 06:40:23;;;;;;;2.63;0.80;;;18.90;84.80;;;;;;5054811;28;20025;-63
2022/07/28 06:42:49;;;;;;;4.30;1.00;;;19.00;85.80;;;;;;5054884;28;20131;-59
2022/07/28 06:45:15;;;;;;;6.03;0.85;;;19.10;85.00;;;;;;5053416;28;20021;-62
2022/07/28 06:47:40;;;;;;;3.03;1.20;;;19.30;84.70;;;;;;5054539;28;20025;-60
2022/07/28 06:50:07;;;;;;;1.77;0.80;;;19.40;84.30;;;;;;5054280;28;20131;-62
2022/07/28 06:52:33;;;;;;;4.25;0.93;;;19.50;83.80;;;;;;5053015;28;20072;-61
2022/07/28 06:54:59;;;;;;;;;;;19.60;83.80;;;;;;5054956;28;20021;-63
2022/07/28 06:57:26;;;;;;;3.13;1.30;;;19.70;83.70;;;;;;5054329;28;20266;-59
2022/07/28 06:59:52;;;;;;;3.30;1.00;;;19.80;83.50;;;;;;5054183;28;20112;-61
2022/07/28 07:02:17;;;;;;;5.10;1.58;;;19.90;83.50;;;;;;5054846;28;20087;-61
2022/07/28 07:04:44;;;;;;;3.78;1.77;;;20.10;82.90;;;;;;5055245;28;20037;-62
2022/07/28 07:07:10;;;;;;;3.05;1.20;;;20.30;83.10;;;;;;5054580;28;20043;-62
2022/07/28 07:09:35;;;;;;;4.72;1.42;;;20.50;81.70;;;;;;5054431;28;20478;-61
2022/07/28 07:12:01;;;;;;;5.05;1.05;;;20.80;81.10;;;;;;5054084;28;20059;-61
2022/07/28 07:14:27;;;;;;;5.47;1.35;;;20.60;81.50;;;;;;5053781;28;20028;-60
2022/07/28 07:16:53;;;;;;;3.70;1.17;;;20.50;81.70;;;;;;5054026;28;20078;-61
2022/07/28 07:19:19;;;;;;;4.70;1.05;;;20.20;82.30;;;;;;5053781;28;20100;-61
2022/07/28 07:21:46;;;;;;;9.45;1.17;;;20.10;83.20;;;;;;5054150;28;20028;-60
2022/07/28 07:24:11;;;;;;;;;;;20.10;83.40;;;;;;5054381;28;20027;-61
2022/07/28 07:26:37;;;;;;;4.78;1.17;;;20.20;83.20;;;;;;5053640;28;19904;-61
2022/07/28 07:29:06;;;;;;;4.68;1.10;;;20.40;82.80;;;;;;5053870;28;20036;-60
2022/07/28 07:31:32;;;;;;;4.40;1.50;;;20.50;82.70;;;;;;5053303;28;20033;-61
2022/07/28 07:33:58;;;;;;;6.50;1.58;;;20.70;81.90;;;;;;5053471;28;20477;-60
2022/07/28 07:36:24;;;;;;;3.95;1.50;;;20.80;81.90;;;;;;5053929;28;20060;-62
2022/07/28 07:38:49;;;;;;;3.58;1.10;;;21.00;81.60;;;;;;5053383;28;20024;-60
2022/07/28 07:41:16;;;;;;;3.28;1.10;;;21.20;81.40;;;;;;5053206;28;20056;-61
2022/07/28 07:43:42;;;;;;;2.65;1.13;;;21.30;81.20;;;;;;5053319;28;20120;-61
2022/07/28 07:46:07;;;;;;;3.13;1.10;;;21.40;80.80;;;;;;5053736;28;20056;-61
2022/07/28 07:48:33;;;;;;;4.80;1.42;;;21.70;80.40;;;;;;5053155;28;20028;-61
2022/07/28 07:50:58;;;;;;;5.93;1.63;;;21.70;80.40;;;;;;5052416;28;20037;-58
2022/07/28 07:53:24;;;;;;;4.57;1.30;;;21.90;80.00;;;;;;5053040;28;20021;-58
2022/07/28 07:55:50;;;;;;;4.55;1.30;;;21.90;79.70;;;;;;5051776;28;20390;-61
2022/07/28 07:58:16;;;;;;;2.58;1.20;;;22.10;79.80;;;;;;5053359;28;20036;-60
2022/07/28 08:00:41;;;;;;;5.68;1.40;;;22.20;79.30;;;;;;5053057;28;20036;-59
2022/07/28 08:03:07;;;;;;;3.05;1.50;;;22.40;79.20;;;;;;5053464;28;20041;-59
2022/07/28 08:05:32;;;;;;;6.43;1.63;;;22.50;79.10;;;;;;5053381;28;20040;-61
2022/07/28 08:07:58;;;;;;;5.25;1.55;;;22.70;78.60;;;;;;5053090;28;20029;-62
2022/07/28 08:10:24;;;;;;;13.73;2.30;;;22.90;78.00;;;;;;5075794;23;20080;-59
2022/07/28 08:12:49;;;;;;;7.88;1.83;;;22.80;78.10;;;;;;5051787;28;20467;-61
2022/07/28 08:15:15;;;;;;;5.40;1.90;;;22.60;79.00;;;;;;5053805;28;20021;-61
2022/07/28 08:17:40;;;;;;;6.22;1.88;;;22.30;79.60;;;;;;5053399;28;20029;-61
2022/07/28 08:20:07;;;;;;;7.35;1.90;;;22.30;79.90;;;;;;5053189;28;20175;-61
2022/07/28 08:22:32;;;;;;;;;;;22.30;79.90;;;;;;5053856;28;20374;-61
2022/07/28 08:25:00;;;;;;;4.85;1.67;;;22.70;79.20;;;;;;5052973;28;19954;-61
2022/07/28 08:27:26;;;;;;;5.30;1.70;;;24.40;76.10;;;;;;5053053;28;20113;-62
2022/07/28 08:29:52;;;;;;;;;;;25.80;72.60;;;;;;5053178;28;20494;-61
2022/07/28 08:32:17;;;;;;;10.23;2.42;;;26.20;71.40;;;;;;5052836;28;19904;-62
2022/07/28 08:34:43;;;;;;;4.13;2.10;;;27.50;69.70;;;;;;5052764;28;20047;-62
2022/07/28 08:37:09;;;;;;;6.07;1.80;;;28.10;67.80;;;;;;5052731;28;20141;-62
2022/07/28 08:39:35;;;;;;;5.47;2.00;;;28.50;66.70;;;;;;5051451;28;20505;-61
2022/07/28 08:42:05;;;;;;;3.97;1.80;;;28.80;65.90;;;;;;5052298;28;20028;-62
2022/07/28 08:44:35;;;;;;;3.00;1.90;;;29.60;65.20;;;;;;5053067;28;20101;-62
2022/07/28 08:47:01;;;;;;;4.63;1.67;;;31.10;63.40;;;;;;5052553;28;20025;-62
2022/07/28 08:49:28;;;;;;;3.65;1.70;;;30.70;62.60;;;;;;5052602;28;20018;-59
2022/07/28 08:51:56;;;;;;;4.25;1.80;;;30.60;62.80;;;;;;5052437;28;20025;-61
2022/07/28 08:54:26;;;;;;;6.07;1.98;;;30.90;62.20;;;;;;5052677;28;20513;-62
2022/07/28 08:56:53;;;;;;;5.60;1.70;;;31.50;62.00;;;;;;5052472;28;20021;-62
2022/07/28 08:59:20;;;;;;;2.55;2.00;;;30.60;62.50;;;;;;5052894;28;20478;-62
2022/07/28 09:01:46;;;;;;;2.65;1.50;;;30.40;63.10;;;;;;5052330;28;20094;-62
2022/07/28 09:04:13;;;;;;;4.22;1.70;;;30.20;63.30;;;;;;5056582;28;20025;-61
2022/07/28 09:06:41;;;;;;;3.00;2.00;;;30.10;63.30;;;;;;5056285;28;20021;-62
2022/07/28 09:09:08;;;;;;;8.43;2.30;;;30.10;63.70;;;;;;5056185;28;20028;-63
2022/07/28 09:11:35;;;;;;;6.97;2.25;;;30.10;63.50;;;;;;5055897;28;20108;-61
2022/07/28 09:14:01;;;;;;;2.42;1.75;;;29.60;64.20;;;;;;5056165;28;20017;-61
2022/07/28 09:16:26;;;;;;;4.43;2.17;;;28.90;65.40;;;;;;5055794;28;20013;-61
2022/07/28 09:18:52;;;;;;;4.38;1.98;;;28.40;66.30;;;;;;5055936;28;20382;-59
2022/07/28 09:21:18;;;;;;;5.43;1.90;;;28.00;67.30;;;;;;5055603;28;20029;-62
2022/07/28 09:23:46;;;;;;;5.78;1.98;;;27.70;67.90;;;;;;5054713;28;20477;-62
2022/07/28 09:26:12;;;;;;;5.50;2.38;;;27.40;69.00;;;;;;5054288;28;20033;-63
2022/07/28 09:28:54;;;;;;;7.43;2.33;;;27.50;68.50;;;;;;5054495;28;20028;-62
2022/07/28 09:31:22;;;;;;;4.80;2.70;;;27.30;69.00;;;;;;5054546;28;20039;-62
2022/07/28 09:34:00;;;;;;;2.85;2.08;;;28.50;67.70;;;;;;5054509;28;20017;-62
2022/07/28 09:36:27;;;;;;;5.82;2.15;;;29.10;66.20;;;;;;5055419;28;20104;-63
2022/07/28 09:38:55;;;;;;;4.63;2.70;;;29.70;65.40;;;;;;5055730;28;20028;-61
2022/07/28 09:41:21;;;;;;;4.97;2.03;;;29.60;65.40;;;;;;5055347;28;20100;-63
2022/07/28 09:43:48;;;;;;;6.93;2.28;;;29.90;65.10;;;;;;5055889;28;20460;-64
2022/07/28 09:46:16;;;;;;;6.57;2.30;;;30.00;64.90;;;;;;5055487;28;20385;-64
2022/07/28 09:48:47;;;;;;;5.57;2.30;;;30.20;64.70;;;;;;5055592;28;20520;-62
2022/07/28 09:51:23;;;;;;;5.18;2.45;;;31.10;63.80;;;;;;5055226;28;20040;-62
2022/07/28 09:53:50;;;;;;;5.32;2.65;;;31.00;63.60;;;;;;5055611;28;20507;-63
2022/07/28 09:56:16;;;;;;;4.47;2.20;;;31.40;63.20;;;;;;5055554;28;20504;-62
2022/07/28 09:58:52;;;;;;;2.85;2.08;;;31.80;62.80;;;;;;5055422;28;20017;-64
2022/07/28 10:01:21;;;;;;;5.70;2.45;;;30.80;63.90;;;;;;5055669;28;20072;-62
2022/07/28 10:03:52;;;;;;;4.93;2.15;;;31.50;63.10;;;;;;5055276;28;20028;-63
2022/07/28 10:06:29;;;;;;;5.93;2.50;;;31.70;62.80;;;;;;5053650;28;20111;-62
2022/07/28 10:08:57;;;;;;;2.83;2.15;;;31.20;63.20;;;;;;5055150;28;20024;-62
2022/07/28 10:11:27;;;;;;;4.97;3.17;;;31.70;62.90;;;;;;5054905;28;20097;-63
2022/07/28 10:14:01;;;;;;;4.15;2.20;;;31.90;62.90;;;;;;5054447;28;20025;-63
2022/07/28 10:16:29;;;;;;;6.18;2.70;;;31.90;62.60;;;;;;5055071;28;20473;-62
2022/07/28 10:18:56;;;;;;;4.78;1.95;;;30.30;64.60;;;;;;5054845;28;20029;-61
2022/07/28 10:21:23;;;;;;;4.40;2.50;;;30.30;65.00;;;;;;5054574;28;20581;-63
2022/07/28 10:23:52;;;;;;;4.82;2.55;;;31.00;64.20;;;;;;5054733;28;20370;-62
2022/07/28 10:26:23;;;;;;;4.40;2.30;;;30.20;64.60;;;;;;5055158;28;20376;-62
2022/07/28 10:28:52;;;;;;;8.85;2.70;;;29.80;65.80;;;;;;5054895;28;20052;-63
2022/07/28 10:31:51;;;;;;;4.05;2.45;;;29.40;66.50;;;;;;5054642;28;20363;-61
2022/07/28 10:34:28;;;;;;;8.15;3.05;;;28.80;67.70;;;;;;5054929;28;20021;-64
2022/07/28 10:36:55;;;;;;;7.03;3.33;;;28.40;68.60;;;;;;5054755;28;20025;-62
2022/07/28 10:39:24;;;;;;;4.72;2.63;;;28.20;68.90;;;;;;5054589;28;20407;-63
2022/07/28 10:41:49;;;;;;;6.78;2.55;;;28.70;68.30;;;;;;5053388;28;20031;-61
2022/07/28 10:44:18;;;;;;;4.55;2.63;;;29.50;67.50;;;;;;5053137;28;20119;-61
2022/07/28 10:46:44;;;;;;;4.43;2.40;;;29.90;66.70;;;;;;5053125;28;20036;-62
2022/07/28 10:49:12;;;;;;;5.50;2.47;;;29.90;66.50;;;;;;5054335;28;20466;-63
2022/07/28 10:51:46;;;;;;;6.30;2.97;;;29.90;66.30;;;;;;5053769;28;20029;-62
2022/07/28 10:54:28;;;;;;;4.90;2.60;;;30.00;66.00;;;;;;5053063;28;20107;-62
2022/07/28 10:57:02;;;;;;;5.80;2.72;;;29.80;66.30;;;;;;5053942;28;20461;-62
2022/07/28 10:59:52;;;;;;;3.97;2.63;;;29.70;66.50;;;;;;5054699;28;20025;-62
2022/07/28 11:02:43;;;;;;;3.78;2.60;;;29.40;67.20;;;;;;5054122;28;20028;-61
2022/07/28 11:05:38;;;;;;;4.97;2.72;;;29.00;67.50;;;;;;5054021;28;20044;-60
2022/07/28 11:08:17;;;;;;;4.28;2.50;;;29.10;67.60;;;;;;5012267;28;20057;-62
2022/07/28 11:10:50;;;;;;;6.93;3.25;;;29.60;67.00;;;;;;5011755;28;20033;-63
2022/07/28 11:13:30;;;;;;;6.75;3.25;;;30.10;66.50;;;;;;5012496;28;20034;-62
2022/07/28 11:16:20;;;;;;;7.90;2.60;;;30.00;66.00;;;;;;5012602;28;20029;-62
2022/07/28 11:19:01;;;;;;;4.30;2.80;;;29.40;66.80;;;;;;5012341;28;20038;-62
2022/07/28 11:21:26;;;;;;;7.95;3.00;;;29.50;67.50;;;;;;5011800;28;20076;-62
2022/07/28 11:23:54;;;;;;;6.13;2.50;;;29.40;67.50;;;;;;5011989;28;20404;-62
2022/07/28 11:26:20;;;;;;;7.72;3.40;;;29.30;67.50;;;;;;5010967;28;20133;-61
2022/07/28 11:29:04;;;;;;;4.50;2.65;;;29.30;67.70;;;;;;5012794;28;20173;-62
2022/07/28 11:31:45;;;;;;;5.55;2.85;;;28.90;68.10;;;;;;5012572;28;20048;-59
2022/07/28 11:34:17;;;;;;;5.78;3.00;;;28.90;68.30;;;;;;5012194;28;20065;-61
2022/07/28 11:37:01;;;;;;;8.10;3.03;;;28.70;68.50;;;;;;5012828;28;20057;-61
2022/07/28 11:39:34;;;;;;;7.30;2.65;;;28.60;68.70;;;;;;4998069;28;20022;-63
2022/07/28 11:42:24;;;;;;;4.88;3.00;;;28.70;68.60;;;;;;5015179;28;20459;-64
2022/07/28 11:44:49;;;;;;;9.10;3.17;;;28.90;68.60;;;;;;5039756;28;20033;-63
2022/07/28 11:47:21;;;;;;;12.20;3.60;;;28.80;68.80;;;;;;5053106;28;20176;-63
2022/07/28 11:50:15;;;;;;;5.47;2.80;;;28.80;68.80;;;;;;5052532;28;20036;-63
2022/07/28 11:52:55;;;;;;;3.88;2.50;;;29.00;68.60;;;;;;5053131;28;20018;-62
2022/07/28 11:55:21;;;;;;;4.82;2.90;;;28.90;68.30;;;;;;5054085;28;20163;-61
2022/07/28 11:57:47;;;;;;;4.93;3.00;;;28.90;68.80;;;;;;5052317;28;20025;-63
2022/07/28 12:00:20;;;;;;;5.00;2.90;;;28.90;68.50;;;;;;5052908;28;20592;-61
2022/07/28 12:02:46;;;;;;;7.68;2.92;;;28.60;69.30;;;;;;5052996;28;20496;-60
2022/07/28 12:05:13;;;;;;;5.85;2.78;;;28.50;69.40;;;;;;5052954;28;20037;-61
2022/07/28 12:07:45;;;;;;;5.50;2.67;;;28.40;69.40;;;;;;5052157;28;20021;-62
2022/07/28 12:10:36;;;;;;;5.43;3.28;;;28.40;69.90;;;;;;5053684;28;20027;-61
2022/07/28 12:13:06;;;;;;;8.25;3.83;;;28.50;69.70;;;;;;5054164;28;20029;-60
2022/07/28 12:15:33;;;;;;;5.03;3.00;;;28.70;69.50;;;;;;5053485;28;20025;-59
2022/07/28 12:18:00;;;;;;;4.25;3.10;;;28.60;69.10;;;;;;5053404;28;20021;-62
2022/07/28 12:20:33;;;;;;;9.02;3.10;;;28.50;69.10;;;;;;5051796;28;20053;-63
2022/07/28 12:23:00;;;;;;;6.10;3.33;;;28.50;69.00;;;;;;5052924;28;20100;-62
2022/07/28 12:25:26;;;;;;;5.43;3.10;;;28.50;69.00;;;;;;5053263;28;20120;-63
2022/07/28 12:27:52;;;;;;;5.35;2.88;;;28.60;69.10;;;;;;5052953;28;20025;-63
2022/07/28 12:30:27;;;;;;;4.22;2.90;;;28.60;69.00;;;;;;5051708;28;20477;-65
2022/07/28 12:32:54;;;;;;;7.25;3.00;;;28.60;69.10;;;;;;5053329;28;20071;-62
2022/07/28 12:35:22;;;;;;;6.05;5.20;;;28.50;69.20;;;;;;5052918;28;20029;-62
2022/07/28 12:37:49;;;;;;;4.90;3.05;;;28.80;68.90;;;;;;5054382;28;20045;-61
2022/07/28 12:40:16;;;;;;;5.88;2.85;;;28.90;68.10;;;;;;5056821;28;20021;-61
2022/07/28 12:42:43;;;;;;;4.88;2.67;;;29.10;68.80;;;;;;5056742;28;20035;-60
2022/07/28 12:45:11;;;;;;;3.88;2.80;;;29.20;67.80;;;;;;5056937;28;20136;-63
2022/07/28 12:47:37;;;;;;;5.05;3.03;;;29.20;67.60;;;;;;5056910;28;20029;-62
2022/07/28 12:50:14;;;;;;;8.20;3.05;;;29.10;67.80;;;;;;5056786;28;20025;-62
2022/07/28 12:52:42;;;;;;;4.07;2.70;;;29.20;67.80;;;;;;5056944;28;20070;-62
2022/07/28 12:55:25;;;;;;;8.13;3.05;;;29.30;67.50;;;;;;5056426;28;20473;-61
2022/07/28 12:57:52;;;;;;;8.23;2.85;;;29.50;67.00;;;;;;5056342;28;20025;-61
2022/07/28 13:00:23;;;;;;;6.82;3.40;;;29.50;67.10;;;;;;5056308;28;20535;-62